createdAt,value
2022-09-04T00:01:45.509Z,11.15
2022-09-04T00:04:12.351Z,11.05
2022-09-04T00:06:52.515Z,10.88
2022-09-04T00:09:36.190Z,10.35
2022-09-04T00:12:08.938Z,9.75
2022-09-04T00:14:49.168Z,10.88
2022-09-04T00:17:46.416Z,10.75
2022-09-04T00:20:34.175Z,9.23
2022-09-04T00:23:38.779Z,10.43
2022-09-04T00:26:26.387Z,9.40
2022-09-04T00:29:03.243Z,8.35
2022-09-04T00:32:19.039Z,6.80
2022-09-04T00:35:04.048Z,7.25
2022-09-04T00:37:39.971Z,8.02
2022-09-04T00:40:12.484Z,7.43
2022-09-04T00:42:48.019Z,7.53
2022-09-04T00:45:46.164Z,7.85
2022-09-04T00:49:17.290Z,7.38
2022-09-04T00:51:55.926Z,7.38
2022-09-04T00:54:44.924Z,7.00
2022-09-04T00:57:29.566Z,7.80
2022-09-04T01:00:14.681Z,7.78
2022-09-04T01:02:53.471Z,7.97
2022-09-04T01:05:45.483Z,7.75
2022-09-04T01:08:40.483Z,8.35
2022-09-04T01:11:17.772Z,8.20
2022-09-04T01:13:55.400Z,8.40
2022-09-04T01:16:41.753Z,7.28
2022-09-04T01:19:18.471Z,8.20
2022-09-04T01:22:08.000Z,8.25
2022-09-04T01:24:46.693Z,9.02
2022-09-04T01:27:22.324Z,9.38
2022-09-04T01:30:09.182Z,9.52
2022-09-04T01:33:04.643Z,9.90
2022-09-04T01:35:34.406Z,9.27
2022-09-04T01:38:18.208Z,8.75
2022-09-04T01:41:01.235Z,10.18
2022-09-04T01:43:28.003Z,11.02
2022-09-04T01:46:13.420Z,10.68
2022-09-04T01:48:58.581Z,10.38
2022-09-04T01:51:34.260Z,10.13
2022-09-04T01:54:16.667Z,9.55
2022-09-04T01:56:45.858Z,8.48
2022-09-04T01:59:43.130Z,8.50
2022-09-04T02:02:41.309Z,8.43
2022-09-04T02:05:29.352Z,7.95
2022-09-04T02:07:58.591Z,8.27
2022-09-04T02:10:45.976Z,7.70
2022-09-04T02:13:22.478Z,8.23
2022-09-04T02:15:58.715Z,9.88
2022-09-04T02:18:44.390Z,8.95
2022-09-04T02:21:31.660Z,8.77
2022-09-04T02:24:30.747Z,9.05
2022-09-04T02:27:16.034Z,9.18
2022-09-04T02:29:56.284Z,7.95
2022-09-04T02:32:57.952Z,7.82
2022-09-04T02:35:24.568Z,8.13
2022-09-04T02:38:09.686Z,9.10
2022-09-04T02:41:05.229Z,10.25
2022-09-04T02:43:54.691Z,10.63
2022-09-04T02:46:33.443Z,10.05
2022-09-04T02:49:34.774Z,10.13
2022-09-04T02:52:48.846Z,11.15
2022-09-04T02:55:44.692Z,12.90
2022-09-04T02:58:30.243Z,12.48
2022-09-04T03:01:12.333Z,16.90
2022-09-04T03:04:03.704Z,14.90
2022-09-04T03:06:46.055Z,12.93
2022-09-04T03:09:19.403Z,11.98
2022-09-04T03:11:53.878Z,11.40
2022-09-04T03:14:24.704Z,11.25
2022-09-04T03:16:57.390Z,9.40
2022-09-04T03:19:36.844Z,9.20
2022-09-04T03:24:40.636Z,9.10
2022-09-04T03:27:10.748Z,10.00
2022-09-04T03:29:37.384Z,9.18
2022-09-04T03:32:22.612Z,9.43
2022-09-04T03:35:02.390Z,9.55
2022-09-04T03:37:42.279Z,10.55
2022-09-04T03:43:03.455Z,9.82
2022-09-04T03:46:06.762Z,10.10
2022-09-04T03:48:45.583Z,9.70
2022-09-04T03:51:29.836Z,12.32
2022-09-04T03:54:35.208Z,12.27
2022-09-04T03:57:23.638Z,12.88
2022-09-04T04:00:11.350Z,14.52
2022-09-04T04:03:08.078Z,14.07
2022-09-04T04:05:59.475Z,12.63
2022-09-04T04:08:56.561Z,12.98
2022-09-04T04:11:39.073Z,11.05
2022-09-04T04:14:24.908Z,9.43
2022-09-04T04:16:56.186Z,11.35
2022-09-04T04:19:26.164Z,10.15
2022-09-04T04:22:01.876Z,10.18
2022-09-04T04:25:05.581Z,9.25
2022-09-04T04:27:44.350Z,9.50
2022-09-04T04:30:15.093Z,9.50
2022-09-04T04:33:10.161Z,9.93
2022-09-04T04:35:54.868Z,10.93
2022-09-04T04:38:24.830Z,11.27
2022-09-04T04:41:05.708Z,11.95
2022-09-04T04:43:50.906Z,11.38
2022-09-04T04:46:23.393Z,10.98
2022-09-04T04:49:21.010Z,11.82
2022-09-04T04:52:15.901Z,14.40
2022-09-04T04:55:22.899Z,18.45
2022-09-04T04:57:49.504Z,19.98
2022-09-04T05:00:32.223Z,23.50
2022-09-04T05:03:21.669Z,27.42
2022-09-04T05:06:10.249Z,24.35
2022-09-04T05:08:51.050Z,21.38
2022-09-04T05:11:23.678Z,21.02
2022-09-04T05:14:16.147Z,18.48
2022-09-04T05:17:24.795Z,21.88
2022-09-04T05:20:17.743Z,21.80
2022-09-04T05:22:56.781Z,20.67
2022-09-04T05:25:52.900Z,20.70
2022-09-04T05:28:40.642Z,20.48
2022-09-04T05:31:49.137Z,18.50
2022-09-04T05:34:43.276Z,19.08
2022-09-04T05:37:21.013Z,16.50
2022-09-04T05:39:53.669Z,16.48
2022-09-04T05:42:38.655Z,15.60
2022-09-04T05:45:08.228Z,17.27
2022-09-04T05:47:53.056Z,16.23
2022-09-04T05:50:21.306Z,16.67
2022-09-04T05:53:27.433Z,16.88
2022-09-04T05:56:05.999Z,16.50
2022-09-04T05:59:03.457Z,14.85
2022-09-04T06:02:14.619Z,14.00
2022-09-04T06:05:09.444Z,11.80
2022-09-04T06:07:47.153Z,10.57
2022-09-04T06:10:16.773Z,11.00
2022-09-04T06:13:25.511Z,9.65
2022-09-04T06:15:57.957Z,8.73
2022-09-04T06:18:38.919Z,8.70
2022-09-04T06:21:15.036Z,8.02
2022-09-04T06:24:17.931Z,7.57
2022-09-04T06:27:35.513Z,6.43
2022-09-04T06:30:11.601Z,6.32
2022-09-04T06:32:53.194Z,6.57
2022-09-04T06:35:26.675Z,6.03
2022-09-04T06:38:18.428Z,5.55
2022-09-04T06:41:22.611Z,5.60
2022-09-04T06:44:05.458Z,5.28
2022-09-04T06:46:45.320Z,5.00
2022-09-04T06:49:22.016Z,5.10
2022-09-04T06:52:26.279Z,4.85
2022-09-04T06:54:59.975Z,4.53
2022-09-04T06:57:39.158Z,4.35
2022-09-04T07:00:07.084Z,4.05
2022-09-04T07:02:59.893Z,4.05
2022-09-04T07:05:45.163Z,3.80
2022-09-04T07:08:34.659Z,4.20
2022-09-04T07:11:13.379Z,4.50
2022-09-04T07:14:17.345Z,4.40
2022-09-04T07:17:19.172Z,3.92
2022-09-04T07:19:54.793Z,4.30
2022-09-04T07:22:43.184Z,4.50
2022-09-04T07:25:26.416Z,4.05
2022-09-04T07:27:59.068Z,3.67
2022-09-04T07:30:31.273Z,3.50
2022-09-04T07:33:14.475Z,3.80
2022-09-04T07:36:02.388Z,3.35
2022-09-04T07:38:52.504Z,3.33
2022-09-04T07:41:22.138Z,3.40
2022-09-04T07:44:16.883Z,3.53
2022-09-04T07:47:02.204Z,3.70
2022-09-04T07:49:55.075Z,4.10
2022-09-04T07:52:31.375Z,4.10
2022-09-04T07:55:11.662Z,3.80
2022-09-04T07:58:02.550Z,4.30
2022-09-04T08:00:39.389Z,4.07
2022-09-04T08:03:17.680Z,4.13
2022-09-04T08:06:18.019Z,4.10
2022-09-04T08:08:59.702Z,3.67
2022-09-04T08:11:45.545Z,4.28
2022-09-04T08:14:27.602Z,3.95
2022-09-04T08:17:24.442Z,4.00
2022-09-04T08:20:03.471Z,3.88
2022-09-04T08:22:53.190Z,3.90
2022-09-04T08:25:50.630Z,3.70
2022-09-04T08:28:20.580Z,3.50
2022-09-04T08:30:56.650Z,3.65
2022-09-04T08:33:49.178Z,3.33
2022-09-04T08:36:53.171Z,3.08
2022-09-04T08:39:48.219Z,3.25
2022-09-04T08:42:24.060Z,3.50
2022-09-04T08:45:19.614Z,3.50
2022-09-04T08:48:27.104Z,2.97
2022-09-04T08:51:08.986Z,3.30
2022-09-04T08:53:44.708Z,2.90
2022-09-04T08:56:24.024Z,2.70
2022-09-04T08:59:05.008Z,2.90
2022-09-04T09:02:19.110Z,3.00
2022-09-04T09:04:58.260Z,2.90
2022-09-04T09:07:55.906Z,3.80
2022-09-04T09:10:31.757Z,2.80
2022-09-04T09:13:17.127Z,3.08
2022-09-04T09:16:14.428Z,3.20
2022-09-04T09:19:06.070Z,3.28
2022-09-04T09:21:32.720Z,3.38
2022-09-04T09:24:36.933Z,2.67
2022-09-04T09:27:28.268Z,8.63
2022-09-04T09:30:19.228Z,2.83
2022-09-04T09:33:20.546Z,2.72
2022-09-04T09:36:20.211Z,3.20
2022-09-04T09:39:11.316Z,2.60
2022-09-04T09:42:15.177Z,2.70
2022-09-04T09:45:07.255Z,2.80
2022-09-04T09:48:11.917Z,2.90
2022-09-04T09:51:09.236Z,2.85
2022-09-04T09:54:13.403Z,3.20
2022-09-04T09:57:01.760Z,2.60
2022-09-04T09:59:53.135Z,2.72
2022-09-04T10:02:50.673Z,2.45
2022-09-04T10:05:32.549Z,2.63
2022-09-04T10:08:36.232Z,2.67
2022-09-04T10:11:09.162Z,2.40
2022-09-04T10:13:51.107Z,2.42
2022-09-04T10:16:48.007Z,3.55
2022-09-04T10:19:51.355Z,2.90
2022-09-04T10:23:04.076Z,3.03
2022-09-04T10:25:39.852Z,2.88
2022-09-04T10:28:40.875Z,2.55
2022-09-04T10:31:31.955Z,2.70
2022-09-04T10:34:19.259Z,2.63
2022-09-04T10:36:58.193Z,2.50
2022-09-04T10:40:11.428Z,2.55
2022-09-04T10:43:10.261Z,2.50
2022-09-04T10:45:47.568Z,2.50
2022-09-04T10:48:14.294Z,2.45
2022-09-04T10:51:12.034Z,2.50
2022-09-04T10:54:07.798Z,2.10
2022-09-04T10:57:21.567Z,2.20
2022-09-04T11:00:04.484Z,2.10
2022-09-04T11:02:47.049Z,2.20
2022-09-04T11:05:20.390Z,2.15
2022-09-04T11:07:49.269Z,2.00
2022-09-04T11:10:53.163Z,2.20
2022-09-04T11:14:06.277Z,2.28
2022-09-04T11:17:10.535Z,2.20
2022-09-04T11:20:06.051Z,2.00
2022-09-04T11:23:05.090Z,2.22
2022-09-04T11:25:50.333Z,2.10
2022-09-04T11:28:57.251Z,2.00
2022-09-04T11:32:01.357Z,1.90
2022-09-04T11:34:52.757Z,2.08
2022-09-04T11:37:38.132Z,1.90
2022-09-04T11:41:03.172Z,1.85
2022-09-04T11:43:54.548Z,1.95
2022-09-04T11:46:43.019Z,1.92
2022-09-04T11:49:39.019Z,1.83
2022-09-04T11:52:45.624Z,2.00
2022-09-04T11:55:41.582Z,2.17
2022-09-04T11:58:17.084Z,2.20
2022-09-04T12:00:59.405Z,1.75
2022-09-04T12:03:36.015Z,1.83
2022-09-04T12:06:11.363Z,1.90
2022-09-04T12:08:52.048Z,2.05
2022-09-04T12:11:32.023Z,1.90
2022-09-04T12:14:08.303Z,2.00
2022-09-04T12:16:44.592Z,2.10
2022-09-04T12:19:33.160Z,1.85
2022-09-04T12:22:36.483Z,1.70
2022-09-04T12:25:20.634Z,1.92
2022-09-04T12:28:18.403Z,1.80
2022-09-04T12:31:16.196Z,1.70
2022-09-04T12:33:42.868Z,1.75
2022-09-04T12:36:15.442Z,1.80
2022-09-04T12:39:02.891Z,1.80
2022-09-04T12:41:39.777Z,1.83
2022-09-04T12:44:26.178Z,1.95
2022-09-04T12:47:13.985Z,1.70
2022-09-04T12:49:46.361Z,1.90
2022-09-04T12:52:34.888Z,1.65
2022-09-04T12:55:18.091Z,1.77
2022-09-04T12:58:24.273Z,2.17
2022-09-04T13:01:23.174Z,1.77
2022-09-04T13:04:04.959Z,1.95
2022-09-04T13:07:16.348Z,1.83
2022-09-04T13:10:02.833Z,2.03
2022-09-04T13:12:47.088Z,1.90
2022-09-04T13:15:22.617Z,1.80
2022-09-04T13:17:55.168Z,1.80
2022-09-04T13:20:46.018Z,1.75
2022-09-04T13:23:26.056Z,1.90
2022-09-04T13:26:20.953Z,1.90
2022-09-04T13:29:02.607Z,2.03
2022-09-04T13:31:43.356Z,1.90
2022-09-04T13:34:30.802Z,2.08
2022-09-04T13:37:14.032Z,2.03
2022-09-04T13:40:01.151Z,2.00
2022-09-04T13:43:03.415Z,1.83
2022-09-04T13:45:37.909Z,1.70
2022-09-04T13:48:32.663Z,1.88
2022-09-04T13:51:13.546Z,1.80
2022-09-04T13:53:59.791Z,1.80
2022-09-04T13:57:21.105Z,1.90
2022-09-04T13:59:50.299Z,2.00
2022-09-04T14:02:24.435Z,2.00
2022-09-04T14:05:13.564Z,1.70
2022-09-04T14:07:47.578Z,1.80
2022-09-04T14:10:26.428Z,1.90
2022-09-04T14:13:14.728Z,1.80
2022-09-04T14:15:47.255Z,1.83
2022-09-04T14:18:14.076Z,1.92
2022-09-04T14:21:03.421Z,1.70
2022-09-04T14:26:06.361Z,1.90
2022-09-04T14:29:19.359Z,1.90
2022-09-04T14:32:10.646Z,2.30
2022-09-04T14:34:40.940Z,3.42
2022-09-04T14:37:52.132Z,2.60
2022-09-04T14:40:25.713Z,2.40
2022-09-04T14:43:15.019Z,2.00
2022-09-04T14:46:19.274Z,2.00
2022-09-04T14:48:51.217Z,1.90
2022-09-04T14:51:40.561Z,1.90
2022-09-04T14:56:49.467Z,1.80
2022-09-04T14:59:28.970Z,1.90
2022-09-04T15:02:16.448Z,1.77
2022-09-04T15:04:47.046Z,1.70
2022-09-04T15:07:42.320Z,1.70
2022-09-04T15:10:31.525Z,2.10
2022-09-04T15:13:16.096Z,1.95
2022-09-04T15:15:47.111Z,1.98
2022-09-04T15:18:23.561Z,1.80
2022-09-04T15:21:02.147Z,1.80
2022-09-04T15:23:48.696Z,1.70
2022-09-04T15:26:24.435Z,1.88
2022-09-04T15:28:57.398Z,1.85
2022-09-04T15:31:35.425Z,2.03
2022-09-04T15:34:08.990Z,1.98
2022-09-04T15:36:37.815Z,1.63
2022-09-04T15:39:09.952Z,1.50
2022-09-04T15:41:49.955Z,1.90
2022-09-04T15:44:21.779Z,1.70
2022-09-04T15:47:06.865Z,1.60
2022-09-04T15:49:54.019Z,1.58
2022-09-04T15:52:44.718Z,1.70
2022-09-04T15:55:33.830Z,1.70
2022-09-04T15:58:24.781Z,1.60
2022-09-04T16:01:06.647Z,1.42
2022-09-04T16:04:00.314Z,1.70
2022-09-04T16:06:45.136Z,2.47
2022-09-04T16:09:19.430Z,5.53
2022-09-04T16:11:59.778Z,5.80
2022-09-04T16:14:42.482Z,4.40
2022-09-04T16:17:20.255Z,3.67
2022-09-04T16:20:02.159Z,3.45
2022-09-04T16:22:43.967Z,4.10
2022-09-04T16:25:18.424Z,3.50
2022-09-04T16:28:00.080Z,1.80
2022-09-04T16:30:33.617Z,2.10
2022-09-04T16:33:02.124Z,1.95
2022-09-04T16:35:34.545Z,1.92
2022-09-04T16:38:15.809Z,2.80
2022-09-04T16:40:56.223Z,2.70
2022-09-04T16:43:34.157Z,3.17
2022-09-04T16:46:23.492Z,2.42
2022-09-04T16:49:07.157Z,2.85
2022-09-04T16:51:45.566Z,2.97
2022-09-04T16:54:30.957Z,2.60
2022-09-04T16:57:12.758Z,2.47
2022-09-04T16:59:55.251Z,3.10
2022-09-04T17:02:32.260Z,3.25
2022-09-04T17:05:34.774Z,2.80
2022-09-04T17:08:20.372Z,2.30
2022-09-04T17:10:53.963Z,2.45
2022-09-04T17:13:36.266Z,2.60
2022-09-04T17:16:22.245Z,2.80
2022-09-04T17:18:54.500Z,2.80
2022-09-04T17:28:54.603Z,2.22
2022-09-04T17:29:13.815Z,2.00
2022-09-04T17:29:16.027Z,2.10
2022-09-04T17:31:34.564Z,2.38
2022-09-04T17:40:35.769Z,2.20
2022-09-04T17:40:57.004Z,1.92
2022-09-04T17:41:31.346Z,1.88
2022-09-04T17:43:33.997Z,1.73
2022-09-04T17:46:16.236Z,1.90
2022-09-04T17:48:45.406Z,3.03
2022-09-04T17:51:23.936Z,2.47
2022-09-04T17:53:55.380Z,2.47
2022-09-04T17:56:34.996Z,2.80
2022-09-04T18:01:51.380Z,3.00
2022-09-04T18:04:39.983Z,2.35
2022-09-04T18:08:00.708Z,2.40
2022-09-04T18:10:18.208Z,2.35
2022-09-04T18:13:04.907Z,2.42
2022-09-04T18:15:39.434Z,2.42
2022-09-04T18:18:37.124Z,2.40
2022-09-04T18:21:28.127Z,2.50
2022-09-04T18:24:03.868Z,2.30
2022-09-04T18:26:45.627Z,2.30
2022-09-04T18:31:14.428Z,2.70
2022-09-04T18:37:25.488Z,4.25
2022-09-04T18:37:27.100Z,2.38
2022-09-04T18:38:19.772Z,3.83
2022-09-04T18:45:34.409Z,2.50
2022-09-04T18:50:29.963Z,2.70
2022-09-04T18:50:33.210Z,3.03
2022-09-04T18:50:48.953Z,2.50
2022-09-04T18:52:23.243Z,2.90
2022-09-04T18:55:02.319Z,3.35
2022-09-04T18:57:50.106Z,2.97
2022-09-04T19:00:33.903Z,2.83
2022-09-04T19:03:19.739Z,3.33
2022-09-04T19:05:50.996Z,5.93
2022-09-04T19:08:25.641Z,6.53
2022-09-04T19:10:56.755Z,10.75
2022-09-04T19:13:45.146Z,19.27
2022-09-04T19:16:20.237Z,22.02
2022-09-04T19:19:03.584Z,25.13
2022-09-04T19:21:35.797Z,20.75
2022-09-04T19:24:36.147Z,18.60
2022-09-04T19:27:30.843Z,8.48
2022-09-04T19:30:18.525Z,5.40
2022-09-04T19:33:04.700Z,5.40
2022-09-04T19:35:54.595Z,3.85
2022-09-04T19:45:55.527Z,2.65
2022-09-04T19:46:09.184Z,2.40
2022-09-04T19:47:28.963Z,3.10
2022-09-04T19:53:21.350Z,3.60
2022-09-04T19:53:34.523Z,2.33
2022-09-04T19:55:46.084Z,2.20
2022-09-04T19:58:21.432Z,2.60
2022-09-04T20:00:58.297Z,2.35
2022-09-04T20:03:36.488Z,2.25
2022-09-04T20:06:21.138Z,2.13
2022-09-04T20:09:14.443Z,2.30
2022-09-04T20:11:47.832Z,2.30
2022-09-04T20:14:27.700Z,2.25
2022-09-04T20:17:08.857Z,2.40
2022-09-04T20:19:44.955Z,2.22
2022-09-04T20:22:30.135Z,2.47
2022-09-04T20:25:21.609Z,2.20
2022-09-04T20:27:54.915Z,2.10
2022-09-04T20:30:24.903Z,2.30
2022-09-04T20:33:06.836Z,2.30
2022-09-04T20:35:53.529Z,2.20
2022-09-04T20:38:30.519Z,2.50
2022-09-04T20:41:07.723Z,2.85
2022-09-04T20:43:57.646Z,2.53
2022-09-04T20:52:40.284Z,2.67
2022-09-04T20:52:49.130Z,2.80
2022-09-04T20:53:10.636Z,2.30
2022-09-04T20:55:44.173Z,2.78
2022-09-04T21:03:08.578Z,2.58
2022-09-04T21:03:12.723Z,2.70
2022-09-04T21:04:48.965Z,3.20
2022-09-04T21:07:41.024Z,2.95
2022-09-04T21:10:19.718Z,2.92
2022-09-04T21:13:12.376Z,3.03
2022-09-04T21:15:41.072Z,3.00
2022-09-04T21:18:18.000Z,3.13
2022-09-04T21:21:15.590Z,3.28
2022-09-04T21:24:03.781Z,3.08
2022-09-04T21:26:36.576Z,3.42
2022-09-04T21:29:34.782Z,3.40
2022-09-04T21:32:20.859Z,3.13
2022-09-04T21:35:07.493Z,3.30
2022-09-04T21:37:33.951Z,3.50
2022-09-04T21:40:49.562Z,3.80
2022-09-04T21:43:47.217Z,3.47
2022-09-04T21:46:17.012Z,3.60
2022-09-04T21:49:07.847Z,3.55
2022-09-04T21:51:59.792Z,3.53
2022-09-04T21:57:19.397Z,3.58
2022-09-04T22:02:41.531Z,3.50
2022-09-04T22:02:43.254Z,3.58
2022-09-04T22:04:57.974Z,3.35
2022-09-04T22:11:02.954Z,3.72
2022-09-04T22:13:33.246Z,3.60
2022-09-04T22:13:48.146Z,3.65
2022-09-04T22:16:54.918Z,3.60
2022-09-04T22:19:55.098Z,3.92
2022-09-04T22:22:59.295Z,3.50
2022-09-04T22:25:39.419Z,3.90
2022-09-04T22:28:41.219Z,3.83
2022-09-04T22:31:13.799Z,3.95
2022-09-04T22:34:14.951Z,4.03
2022-09-04T22:37:00.529Z,4.03
2022-09-04T22:39:42.539Z,4.32
2022-09-04T22:42:33.556Z,4.13
2022-09-04T22:45:15.313Z,4.13
2022-09-04T22:47:54.038Z,3.90
2022-09-04T22:50:54.903Z,4.22
2022-09-04T22:53:55.586Z,4.43
2022-09-04T22:56:52.473Z,4.30
2022-09-04T22:59:43.876Z,4.75
2022-09-04T23:02:54.089Z,4.45
2022-09-04T23:05:28.879Z,4.15
2022-09-04T23:13:48.604Z,4.68
2022-09-04T23:14:02.710Z,4.35
2022-09-04T23:14:21.677Z,4.65
2022-09-04T23:16:51.373Z,4.90
2022-09-04T23:23:15.628Z,4.90
2022-09-04T23:26:34.633Z,4.57
2022-09-04T23:26:53.591Z,4.57
2022-09-04T23:28:50.230Z,4.70
2022-09-04T23:31:40.238Z,4.85
2022-09-04T23:34:25.588Z,4.95
2022-09-04T23:37:08.284Z,4.88
2022-09-04T23:39:50.469Z,4.60
2022-09-04T23:42:58.903Z,5.07
2022-09-04T23:45:48.685Z,4.95
2022-09-04T23:48:55.910Z,4.75
2022-09-04T23:52:03.300Z,5.07
2022-09-04T23:55:12.923Z,4.97
2022-09-04T23:57:55.468Z,5.32
